sensor_id;sensor_type;location;lat;lon;timestamp;P1;durP1;ratioP1;P2;durP2;ratioP2
19705;SDS011;10003;52.506;4.700;2022-09-19T00:01:08;4.03;;;1.67;;
19705;SDS011;10003;52.506;4.700;2022-09-19T00:03:40;6.53;;;2.07;;
19705;SDS011;10003;52.506;4.700;2022-09-19T00:06:11;2.60;;;0.90;;
19705;SDS011;10003;52.506;4.700;2022-09-19T00:08:41;2.27;;;1.47;;
19705;SDS011;10003;52.506;4.700;2022-09-19T00:11:10;2.23;;;1.10;;
19705;SDS011;10003;52.506;4.700;2022-09-19T00:13:39;2.93;;;1.60;;
19705;SDS011;10003;52.506;4.700;2022-09-19T00:16:11;2.17;;;1.80;;
19705;SDS011;10003;52.506;4.700;2022-09-19T00:18:40;6.50;;;2.70;;
19705;SDS011;10003;52.506;4.700;2022-09-19T00:21:08;1.53;;;1.30;;
19705;SDS011;10003;52.506;4.700;2022-09-19T00:23:38;5.23;;;1.13;;
19705;SDS011;10003;52.506;4.700;2022-09-19T00:26:24;5.10;;;2.30;;
19705;SDS011;10003;52.506;4.700;2022-09-19T00:28:52;6.33;;;2.13;;
19705;SDS011;10003;52.506;4.700;2022-09-19T00:31:20;9.43;;;2.20;;
19705;SDS011;10003;52.506;4.700;2022-09-19T00:33:49;33.10;;;3.43;;
19705;SDS011;10003;52.506;4.700;2022-09-19T00:36:18;1.23;;;1.17;;
19705;SDS011;10003;52.506;4.700;2022-09-19T00:38:48;4.10;;;1.93;;
19705;SDS011;10003;52.506;4.700;2022-09-19T00:41:18;2.77;;;1.33;;
19705;SDS011;10003;52.506;4.700;2022-09-19T00:43:48;9.27;;;3.33;;
19705;SDS011;10003;52.506;4.700;2022-09-19T00:46:17;24.47;;;2.70;;
19705;SDS011;10003;52.506;4.700;2022-09-19T00:48:48;2.40;;;0.97;;
19705;SDS011;10003;52.506;4.700;2022-09-19T00:51:20;7.63;;;2.40;;
19705;SDS011;10003;52.506;4.700;2022-09-19T00:53:55;7.07;;;1.43;;
19705;SDS011;10003;52.506;4.700;2022-09-19T00:56:24;3.00;;;2.13;;
19705;SDS011;10003;52.506;4.700;2022-09-19T00:58:52;7.83;;;1.73;;
19705;SDS011;10003;52.506;4.700;2022-09-19T01:01:21;7.03;;;1.50;;
19705;SDS011;10003;52.506;4.700;2022-09-19T01:03:51;5.63;;;1.33;;
19705;SDS011;10003;52.506;4.700;2022-09-19T01:06:24;8.87;;;1.60;;
19705;SDS011;10003;52.506;4.700;2022-09-19T01:08:58;16.53;;;2.37;;
19705;SDS011;10003;52.506;4.700;2022-09-19T01:14:16;2.80;;;1.67;;
19705;SDS011;10003;52.506;4.700;2022-09-19T01:16:52;1.53;;;1.40;;
19705;SDS011;10003;52.506;4.700;2022-09-19T01:19:30;2.03;;;0.70;;
19705;SDS011;10003;52.506;4.700;2022-09-19T01:22:03;2.73;;;1.00;;
19705;SDS011;10003;52.506;4.700;2022-09-19T01:24:43;2.40;;;2.00;;
19705;SDS011;10003;52.506;4.700;2022-09-19T01:30:01;2.57;;;1.47;;
19705;SDS011;10003;52.506;4.700;2022-09-19T01:32:32;8.30;;;1.07;;
19705;SDS011;10003;52.506;4.700;2022-09-19T01:35:02;2.50;;;0.90;;
19705;SDS011;10003;52.506;4.700;2022-09-19T01:37:33;11.60;;;3.90;;
19705;SDS011;10003;52.506;4.700;2022-09-19T01:40:04;2.33;;;1.40;;
19705;SDS011;10003;52.506;4.700;2022-09-19T01:42:34;0.73;;;0.70;;
19705;SDS011;10003;52.506;4.700;2022-09-19T01:45:05;3.83;;;1.80;;
19705;SDS011;10003;52.506;4.700;2022-09-19T01:47:39;3.63;;;1.53;;
19705;SDS011;10003;52.506;4.700;2022-09-19T01:50:10;11.03;;;1.70;;
19705;SDS011;10003;52.506;4.700;2022-09-19T01:52:48;2.50;;;1.30;;
19705;SDS011;10003;52.506;4.700;2022-09-19T01:55:20;4.87;;;1.73;;
19705;SDS011;10003;52.506;4.700;2022-09-19T01:57:51;4.27;;;1.60;;
19705;SDS011;10003;52.506;4.700;2022-09-19T02:00:21;2.60;;;2.10;;
19705;SDS011;10003;52.506;4.700;2022-09-19T02:02:54;5.20;;;1.77;;
19705;SDS011;10003;52.506;4.700;2022-09-19T02:05:26;1.90;;;1.80;;
19705;SDS011;10003;52.506;4.700;2022-09-19T02:07:59;6.07;;;2.00;;
19705;SDS011;10003;52.506;4.700;2022-09-19T02:10:30;1.37;;;1.17;;
19705;SDS011;10003;52.506;4.700;2022-09-19T02:13:01;9.70;;;1.77;;
19705;SDS011;10003;52.506;4.700;2022-09-19T02:15:36;6.90;;;2.20;;
19705;SDS011;10003;52.506;4.700;2022-09-19T02:18:05;15.00;;;1.80;;
19705;SDS011;10003;52.506;4.700;2022-09-19T02:20:37;11.83;;;2.20;;
19705;SDS011;10003;52.506;4.700;2022-09-19T02:23:13;2.57;;;1.63;;
19705;SDS011;10003;52.506;4.700;2022-09-19T02:25:43;3.10;;;1.33;;
19705;SDS011;10003;52.506;4.700;2022-09-19T02:28:14;8.00;;;2.07;;
19705;SDS011;10003;52.506;4.700;2022-09-19T02:30:46;2.00;;;1.40;;
19705;SDS011;10003;52.506;4.700;2022-09-19T02:33:14;17.23;;;2.53;;
19705;SDS011;10003;52.506;4.700;2022-09-19T02:35:44;1.33;;;1.23;;
19705;SDS011;10003;52.506;4.700;2022-09-19T02:38:20;13.00;;;3.03;;
19705;SDS011;10003;52.506;4.700;2022-09-19T02:40:51;0.70;;;0.70;;
19705;SDS011;10003;52.506;4.700;2022-09-19T02:43:24;5.87;;;1.83;;
19705;SDS011;10003;52.506;4.700;2022-09-19T02:45:58;5.20;;;1.07;;
19705;SDS011;10003;52.506;4.700;2022-09-19T02:48:31;1.60;;;0.77;;
19705;SDS011;10003;52.506;4.700;2022-09-19T02:51:05;3.97;;;0.73;;
19705;SDS011;10003;52.506;4.700;2022-09-19T02:53:37;11.03;;;2.00;;
19705;SDS011;10003;52.506;4.700;2022-09-19T02:56:08;3.53;;;1.93;;
19705;SDS011;10003;52.506;4.700;2022-09-19T02:58:41;4.07;;;1.73;;
19705;SDS011;10003;52.506;4.700;2022-09-19T03:01:14;2.73;;;2.50;;
19705;SDS011;10003;52.506;4.700;2022-09-19T03:03:44;3.07;;;1.63;;
19705;SDS011;10003;52.506;4.700;2022-09-19T03:06:32;1.90;;;1.47;;
19705;SDS011;10003;52.506;4.700;2022-09-19T03:09:04;2.77;;;1.67;;
19705;SDS011;10003;52.506;4.700;2022-09-19T03:11:32;3.83;;;1.40;;
19705;SDS011;10003;52.506;4.700;2022-09-19T03:14:02;1.80;;;1.17;;
19705;SDS011;10003;52.506;4.700;2022-09-19T03:16:35;3.20;;;1.97;;
19705;SDS011;10003;52.506;4.700;2022-09-19T03:19:05;4.23;;;1.17;;
19705;SDS011;10003;52.506;4.700;2022-09-19T03:21:34;1.83;;;1.73;;
19705;SDS011;10003;52.506;4.700;2022-09-19T03:24:04;10.13;;;2.87;;
19705;SDS011;10003;52.506;4.700;2022-09-19T03:26:34;3.10;;;1.73;;
19705;SDS011;10003;52.506;4.700;2022-09-19T03:29:04;15.30;;;1.80;;
19705;SDS011;10003;52.506;4.700;2022-09-19T03:31:34;3.10;;;1.23;;
19705;SDS011;10003;52.506;4.700;2022-09-19T03:34:02;3.77;;;1.53;;
19705;SDS011;10003;52.506;4.700;2022-09-19T03:36:31;1.87;;;1.67;;
19705;SDS011;10003;52.506;4.700;2022-09-19T03:39:00;2.57;;;2.10;;
19705;SDS011;10003;52.506;4.700;2022-09-19T03:41:29;17.40;;;3.50;;
19705;SDS011;10003;52.506;4.700;2022-09-19T03:43:59;9.33;;;2.60;;
19705;SDS011;10003;52.506;4.700;2022-09-19T03:46:28;2.70;;;1.70;;
19705;SDS011;10003;52.506;4.700;2022-09-19T03:49:00;6.67;;;2.23;;
19705;SDS011;10003;52.506;4.700;2022-09-19T03:51:29;14.03;;;1.80;;
19705;SDS011;10003;52.506;4.700;2022-09-19T03:53:57;17.87;;;2.97;;
19705;SDS011;10003;52.506;4.700;2022-09-19T03:56:26;0.40;;;0.40;;
19705;SDS011;10003;52.506;4.700;2022-09-19T03:58:54;0.40;;;0.40;;
19705;SDS011;10003;52.506;4.700;2022-09-19T04:01:22;0.40;;;0.40;;
19705;SDS011;10003;52.506;4.700;2022-09-19T04:03:51;0.40;;;0.40;;
19705;SDS011;10003;52.506;4.700;2022-09-19T04:06:21;0.40;;;0.40;;
19705;SDS011;10003;52.506;4.700;2022-09-19T04:08:49;0.40;;;0.40;;
19705;SDS011;10003;52.506;4.700;2022-09-19T04:11:18;0.40;;;0.40;;
19705;SDS011;10003;52.506;4.700;2022-09-19T04:13:47;0.40;;;0.40;;
19705;SDS011;10003;52.506;4.700;2022-09-19T04:16:17;0.40;;;0.40;;
19705;SDS011;10003;52.506;4.700;2022-09-19T04:18:46;0.40;;;0.40;;
19705;SDS011;10003;52.506;4.700;2022-09-19T04:21:16;0.40;;;0.40;;
19705;SDS011;10003;52.506;4.700;2022-09-19T04:23:46;0.40;;;0.40;;
19705;SDS011;10003;52.506;4.700;2022-09-19T04:26:14;0.40;;;0.40;;
19705;SDS011;10003;52.506;4.700;2022-09-19T04:28:43;0.40;;;0.40;;
19705;SDS011;10003;52.506;4.700;2022-09-19T04:31:12;0.40;;;0.40;;
19705;SDS011;10003;52.506;4.700;2022-09-19T04:33:41;0.40;;;0.40;;
19705;SDS011;10003;52.506;4.700;2022-09-19T04:36:09;0.40;;;0.40;;
19705;SDS011;10003;52.506;4.700;2022-09-19T04:38:39;0.40;;;0.40;;
19705;SDS011;10003;52.506;4.700;2022-09-19T04:41:09;0.40;;;0.40;;
19705;SDS011;10003;52.506;4.700;2022-09-19T04:43:41;0.40;;;0.40;;
19705;SDS011;10003;52.506;4.700;2022-09-19T04:46:10;0.40;;;0.40;;
19705;SDS011;10003;52.506;4.700;2022-09-19T04:48:39;0.30;;;0.30;;
19705;SDS011;10003;52.506;4.700;2022-09-19T04:51:10;0.40;;;0.40;;
19705;SDS011;10003;52.506;4.700;2022-09-19T04:53:38;0.40;;;0.40;;
19705;SDS011;10003;52.506;4.700;2022-09-19T04:56:07;0.40;;;0.40;;
19705;SDS011;10003;52.506;4.700;2022-09-19T04:58:38;0.43;;;0.43;;
19705;SDS011;10003;52.506;4.700;2022-09-19T05:01:07;0.40;;;0.40;;
19705;SDS011;10003;52.506;4.700;2022-09-19T05:03:37;0.40;;;0.40;;
19705;SDS011;10003;52.506;4.700;2022-09-19T05:06:05;0.40;;;0.40;;
19705;SDS011;10003;52.506;4.700;2022-09-19T05:08:33;0.40;;;0.40;;
19705;SDS011;10003;52.506;4.700;2022-09-19T05:11:04;0.43;;;0.43;;
19705;SDS011;10003;52.506;4.700;2022-09-19T05:13:33;0.40;;;0.40;;
19705;SDS011;10003;52.506;4.700;2022-09-19T05:16:06;0.40;;;0.40;;
19705;SDS011;10003;52.506;4.700;2022-09-19T05:18:34;0.50;;;0.50;;
19705;SDS011;10003;52.506;4.700;2022-09-19T05:21:04;0.50;;;0.50;;
19705;SDS011;10003;52.506;4.700;2022-09-19T05:23:34;0.40;;;0.40;;
19705;SDS011;10003;52.506;4.700;2022-09-19T05:26:03;0.50;;;0.50;;
19705;SDS011;10003;52.506;4.700;2022-09-19T05:28:32;0.50;;;0.50;;
19705;SDS011;10003;52.506;4.700;2022-09-19T05:31:00;0.40;;;0.40;;
19705;SDS011;10003;52.506;4.700;2022-09-19T05:33:33;0.40;;;0.40;;
19705;SDS011;10003;52.506;4.700;2022-09-19T05:36:03;0.40;;;0.40;;
19705;SDS011;10003;52.506;4.700;2022-09-19T05:38:31;0.40;;;0.40;;
19705;SDS011;10003;52.506;4.700;2022-09-19T05:41:01;0.40;;;0.40;;
19705;SDS011;10003;52.506;4.700;2022-09-19T05:43:29;0.40;;;0.40;;
19705;SDS011;10003;52.506;4.700;2022-09-19T05:45:58;0.40;;;0.40;;
19705;SDS011;10003;52.506;4.700;2022-09-19T05:48:27;0.40;;;0.40;;
19705;SDS011;10003;52.506;4.700;2022-09-19T05:50:57;0.40;;;0.40;;
19705;SDS011;10003;52.506;4.700;2022-09-19T05:53:26;0.40;;;0.40;;
19705;SDS011;10003;52.506;4.700;2022-09-19T05:56:11;0.40;;;0.40;;
19705;SDS011;10003;52.506;4.700;2022-09-19T05:58:40;0.40;;;0.40;;
19705;SDS011;10003;52.506;4.700;2022-09-19T06:01:09;0.40;;;0.40;;
19705;SDS011;10003;52.506;4.700;2022-09-19T06:03:37;0.40;;;0.40;;
19705;SDS011;10003;52.506;4.700;2022-09-19T06:06:08;0.40;;;0.40;;
19705;SDS011;10003;52.506;4.700;2022-09-19T06:08:38;0.30;;;0.30;;
19705;SDS011;10003;52.506;4.700;2022-09-19T06:11:09;0.40;;;0.40;;
19705;SDS011;10003;52.506;4.700;2022-09-19T06:13:38;0.40;;;0.40;;
19705;SDS011;10003;52.506;4.700;2022-09-19T06:16:24;0.40;;;0.40;;
19705;SDS011;10003;52.506;4.700;2022-09-19T06:18:52;0.40;;;0.40;;
19705;SDS011;10003;52.506;4.700;2022-09-19T06:21:23;0.30;;;0.30;;
19705;SDS011;10003;52.506;4.700;2022-09-19T06:23:51;0.40;;;0.40;;
19705;SDS011;10003;52.506;4.700;2022-09-19T06:26:20;0.40;;;0.40;;
19705;SDS011;10003;52.506;4.700;2022-09-19T06:28:49;0.37;;;0.37;;
19705;SDS011;10003;52.506;4.700;2022-09-19T06:31:18;0.40;;;0.40;;
19705;SDS011;10003;52.506;4.700;2022-09-19T06:33:49;0.40;;;0.40;;
19705;SDS011;10003;52.506;4.700;2022-09-19T06:36:17;0.40;;;0.40;;
19705;SDS011;10003;52.506;4.700;2022-09-19T06:38:48;0.40;;;0.40;;
19705;SDS011;10003;52.506;4.700;2022-09-19T06:41:17;0.40;;;0.40;;
19705;SDS011;10003;52.506;4.700;2022-09-19T06:43:45;0.40;;;0.40;;
19705;SDS011;10003;52.506;4.700;2022-09-19T06:46:14;0.40;;;0.40;;
19705;SDS011;10003;52.506;4.700;2022-09-19T06:48:48;0.40;;;0.40;;
19705;SDS011;10003;52.506;4.700;2022-09-19T06:51:33;0.40;;;0.40;;
19705;SDS011;10003;52.506;4.700;2022-09-19T06:54:06;0.30;;;0.30;;
19705;SDS011;10003;52.506;4.700;2022-09-19T06:56:34;0.40;;;0.40;;
19705;SDS011;10003;52.506;4.700;2022-09-19T07:06:03;5.57;;;2.20;;
19705;SDS011;10003;52.506;4.700;2022-09-19T07:24:29;3.33;;;1.20;;
19705;SDS011;10003;52.506;4.700;2022-09-19T07:27:35;1.30;;;1.20;;
19705;SDS011;10003;52.506;4.700;2022-09-19T07:30:31;3.33;;;1.37;;
19705;SDS011;10003;52.506;4.700;2022-09-19T07:33:54;0.40;;;0.40;;
19705;SDS011;10003;52.506;4.700;2022-09-19T07:37:12;0.40;;;0.40;;
19705;SDS011;10003;52.506;4.700;2022-09-19T07:47:25;0.40;;;0.40;;
19705;SDS011;10003;52.506;4.700;2022-09-19T07:50:05;0.40;;;0.40;;
19705;SDS011;10003;52.506;4.700;2022-09-19T07:52:37;0.30;;;0.30;;
19705;SDS011;10003;52.506;4.700;2022-09-19T07:55:12;0.40;;;0.40;;
19705;SDS011;10003;52.506;4.700;2022-09-19T07:57:56;0.30;;;0.30;;
19705;SDS011;10003;52.506;4.700;2022-09-19T08:00:33;0.40;;;0.40;;
19705;SDS011;10003;52.506;4.700;2022-09-19T08:03:09;0.40;;;0.40;;
19705;SDS011;10003;52.506;4.700;2022-09-19T08:05:48;0.30;;;0.30;;
19705;SDS011;10003;52.506;4.700;2022-09-19T08:08:53;0.40;;;0.40;;
19705;SDS011;10003;52.506;4.700;2022-09-19T08:11:36;0.30;;;0.30;;
19705;SDS011;10003;52.506;4.700;2022-09-19T08:14:28;0.40;;;0.40;;
19705;SDS011;10003;52.506;4.700;2022-09-19T08:17:17;0.30;;;0.30;;
19705;SDS011;10003;52.506;4.700;2022-09-19T08:20:12;0.30;;;0.30;;
19705;SDS011;10003;52.506;4.700;2022-09-19T08:22:58;0.40;;;0.40;;
19705;SDS011;10003;52.506;4.700;2022-09-19T08:25:35;0.40;;;0.40;;
19705;SDS011;10003;52.506;4.700;2022-09-19T08:28:19;0.30;;;0.30;;
19705;SDS011;10003;52.506;4.700;2022-09-19T08:31:08;0.30;;;0.30;;
19705;SDS011;10003;52.506;4.700;2022-09-19T08:35:22;0.30;;;0.30;;
19705;SDS011;10003;52.506;4.700;2022-09-19T08:41:08;0.40;;;0.40;;
19705;SDS011;10003;52.506;4.700;2022-09-19T08:44:43;0.40;;;0.40;;
19705;SDS011;10003;52.506;4.700;2022-09-19T08:47:30;0.40;;;0.40;;
19705;SDS011;10003;52.506;4.700;2022-09-19T08:57:59;0.43;;;0.43;;
19705;SDS011;10003;52.506;4.700;2022-09-19T09:04:06;0.40;;;0.40;;
19705;SDS011;10003;52.506;4.700;2022-09-19T09:15:30;0.40;;;0.40;;
19705;SDS011;10003;52.506;4.700;2022-09-19T09:18:26;0.40;;;0.40;;
19705;SDS011;10003;52.506;4.700;2022-09-19T09:21:16;0.40;;;0.40;;
19705;SDS011;10003;52.506;4.700;2022-09-19T09:23:56;0.40;;;0.40;;
19705;SDS011;10003;52.506;4.700;2022-09-19T09:26:51;0.30;;;0.30;;
19705;SDS011;10003;52.506;4.700;2022-09-19T09:29:26;0.30;;;0.30;;
19705;SDS011;10003;52.506;4.700;2022-09-19T09:32:15;0.30;;;0.30;;
19705;SDS011;10003;52.506;4.700;2022-09-19T09:34:51;0.40;;;0.40;;
19705;SDS011;10003;52.506;4.700;2022-09-19T09:37:32;0.40;;;0.40;;
19705;SDS011;10003;52.506;4.700;2022-09-19T09:40:04;0.40;;;0.40;;
19705;SDS011;10003;52.506;4.700;2022-09-19T09:42:42;0.40;;;0.40;;
19705;SDS011;10003;52.506;4.700;2022-09-19T09:45:16;0.40;;;0.40;;
19705;SDS011;10003;52.506;4.700;2022-09-19T09:47:52;0.30;;;0.30;;
19705;SDS011;10003;52.506;4.700;2022-09-19T09:50:29;0.30;;;0.30;;
19705;SDS011;10003;52.506;4.700;2022-09-19T09:53:07;0.40;;;0.40;;
19705;SDS011;10003;52.506;4.700;2022-09-19T09:55:44;0.30;;;0.30;;
19705;SDS011;10003;52.506;4.700;2022-09-19T10:02:14;0.30;;;0.30;;
19705;SDS011;10003;52.506;4.700;2022-09-19T10:05:09;0.30;;;0.30;;
19705;SDS011;10003;52.506;4.700;2022-09-19T10:07:43;0.30;;;0.30;;
19705;SDS011;10003;52.506;4.700;2022-09-19T10:10:15;0.30;;;0.30;;
19705;SDS011;10003;52.506;4.700;2022-09-19T10:12:55;0.30;;;0.30;;
19705;SDS011;10003;52.506;4.700;2022-09-19T10:15:32;0.30;;;0.30;;
19705;SDS011;10003;52.506;4.700;2022-09-19T10:18:07;0.30;;;0.30;;
19705;SDS011;10003;52.506;4.700;2022-09-19T10:20:42;0.40;;;0.40;;
19705;SDS011;10003;52.506;4.700;2022-09-19T10:26:10;0.30;;;0.30;;
19705;SDS011;10003;52.506;4.700;2022-09-19T10:28:50;0.40;;;0.40;;
19705;SDS011;10003;52.506;4.700;2022-09-19T10:31:25;0.40;;;0.40;;
19705;SDS011;10003;52.506;4.700;2022-09-19T10:34:23;0.40;;;0.40;;
19705;SDS011;10003;52.506;4.700;2022-09-19T10:37:05;0.30;;;0.30;;
19705;SDS011;10003;52.506;4.700;2022-09-19T10:39:50;0.40;;;0.40;;
19705;SDS011;10003;52.506;4.700;2022-09-19T10:42:27;0.40;;;0.40;;
19705;SDS011;10003;52.506;4.700;2022-09-19T10:45:02;2.70;;;1.10;;
19705;SDS011;10003;52.506;4.700;2022-09-19T10:47:37;4.87;;;1.80;;
19705;SDS011;10003;52.506;4.700;2022-09-19T10:50:11;4.87;;;2.03;;
19705;SDS011;10003;52.506;4.700;2022-09-19T10:52:48;4.47;;;2.17;;
19705;SDS011;10003;52.506;4.700;2022-09-19T10:55:21;4.47;;;1.37;;
19705;SDS011;10003;52.506;4.700;2022-09-19T10:57:59;4.13;;;1.23;;
19705;SDS011;10003;52.506;4.700;2022-09-19T11:00:31;1.97;;;1.00;;
19705;SDS011;10003;52.506;4.700;2022-09-19T11:03:14;0.50;;;0.50;;
19705;SDS011;10003;52.506;4.700;2022-09-19T11:08:42;5.70;;;1.57;;
19705;SDS011;10003;52.506;4.700;2022-09-19T11:12:11;1.13;;;1.13;;
19705;SDS011;10003;52.506;4.700;2022-09-19T11:14:59;3.77;;;2.13;;
19705;SDS011;10003;52.506;4.700;2022-09-19T11:17:56;1.30;;;0.80;;
19705;SDS011;10003;52.506;4.700;2022-09-19T11:20:34;1.37;;;1.17;;
19705;SDS011;10003;52.506;4.700;2022-09-19T11:26:23;1.53;;;1.00;;
19705;SDS011;10003;52.506;4.700;2022-09-19T11:29:07;1.10;;;0.97;;
19705;SDS011;10003;52.506;4.700;2022-09-19T11:31:57;2.97;;;1.33;;
19705;SDS011;10003;52.506;4.700;2022-09-19T11:34:53;1.20;;;1.10;;
19705;SDS011;10003;52.506;4.700;2022-09-19T11:37:45;5.10;;;1.63;;
19705;SDS011;10003;52.506;4.700;2022-09-19T11:43:38;1.47;;;0.90;;
19705;SDS011;10003;52.506;4.700;2022-09-19T11:52:30;0.40;;;0.40;;
19705;SDS011;10003;52.506;4.700;2022-09-19T11:55:11;0.40;;;0.40;;
19705;SDS011;10003;52.506;4.700;2022-09-19T11:57:59;0.40;;;0.40;;
19705;SDS011;10003;52.506;4.700;2022-09-19T12:00:51;0.40;;;0.40;;
19705;SDS011;10003;52.506;4.700;2022-09-19T12:03:37;0.40;;;0.40;;
19705;SDS011;10003;52.506;4.700;2022-09-19T12:06:22;0.40;;;0.40;;
19705;SDS011;10003;52.506;4.700;2022-09-19T12:09:02;0.40;;;0.40;;
19705;SDS011;10003;52.506;4.700;2022-09-19T12:11:44;0.37;;;0.37;;
19705;SDS011;10003;52.506;4.700;2022-09-19T12:14:37;0.30;;;0.30;;
19705;SDS011;10003;52.506;4.700;2022-09-19T12:17:33;0.40;;;0.40;;
19705;SDS011;10003;52.506;4.700;2022-09-19T12:20:13;0.40;;;0.40;;
19705;SDS011;10003;52.506;4.700;2022-09-19T12:22:47;0.40;;;0.40;;
19705;SDS011;10003;52.506;4.700;2022-09-19T12:25:18;0.40;;;0.40;;
19705;SDS011;10003;52.506;4.700;2022-09-19T12:27:48;0.40;;;0.40;;
19705;SDS011;10003;52.506;4.700;2022-09-19T12:30:23;0.40;;;0.40;;
19705;SDS011;10003;52.506;4.700;2022-09-19T12:33:08;0.40;;;0.40;;
19705;SDS011;10003;52.506;4.700;2022-09-19T12:35:38;0.40;;;0.40;;
19705;SDS011;10003;52.506;4.700;2022-09-19T12:38:15;0.40;;;0.40;;
19705;SDS011;10003;52.506;4.700;2022-09-19T12:40:47;0.40;;;0.40;;
19705;SDS011;10003;52.506;4.700;2022-09-19T12:43:34;0.40;;;0.40;;
19705;SDS011;10003;52.506;4.700;2022-09-19T12:46:08;0.30;;;0.30;;
19705;SDS011;10003;52.506;4.700;2022-09-19T12:48:54;0.30;;;0.30;;
19705;SDS011;10003;52.506;4.700;2022-09-19T12:51:46;0.30;;;0.30;;
19705;SDS011;10003;52.506;4.700;2022-09-19T12:54:31;0.40;;;0.40;;
19705;SDS011;10003;52.506;4.700;2022-09-19T12:57:08;0.40;;;0.40;;
19705;SDS011;10003;52.506;4.700;2022-09-19T12:59:37;0.40;;;0.40;;
19705;SDS011;10003;52.506;4.700;2022-09-19T13:02:12;0.40;;;0.40;;
19705;SDS011;10003;52.506;4.700;2022-09-19T13:04:46;0.40;;;0.40;;
19705;SDS011;10003;52.506;4.700;2022-09-19T13:07:20;0.30;;;0.30;;
19705;SDS011;10003;52.506;4.700;2022-09-19T13:09:56;0.40;;;0.40;;
19705;SDS011;10003;52.506;4.700;2022-09-19T13:12:30;0.40;;;0.40;;
19705;SDS011;10003;52.506;4.700;2022-09-19T13:15:02;0.40;;;0.40;;
19705;SDS011;10003;52.506;4.700;2022-09-19T13:17:32;0.30;;;0.30;;
19705;SDS011;10003;52.506;4.700;2022-09-19T13:20:22;0.30;;;0.30;;
19705;SDS011;10003;52.506;4.700;2022-09-19T13:23:14;0.40;;;0.40;;
19705;SDS011;10003;52.506;4.700;2022-09-19T13:26:19;0.30;;;0.30;;
19705;SDS011;10003;52.506;4.700;2022-09-19T13:28:54;0.80;;;0.80;;
19705;SDS011;10003;52.506;4.700;2022-09-19T13:31:23;0.40;;;0.40;;
19705;SDS011;10003;52.506;4.700;2022-09-19T13:33:53;0.30;;;0.30;;
19705;SDS011;10003;52.506;4.700;2022-09-19T13:36:39;0.40;;;0.40;;
19705;SDS011;10003;52.506;4.700;2022-09-19T13:41:57;0.40;;;0.40;;
19705;SDS011;10003;52.506;4.700;2022-09-19T13:44:29;0.30;;;0.30;;
19705;SDS011;10003;52.506;4.700;2022-09-19T13:47:08;0.30;;;0.30;;
19705;SDS011;10003;52.506;4.700;2022-09-19T13:49:42;0.40;;;0.40;;
19705;SDS011;10003;52.506;4.700;2022-09-19T13:52:26;0.30;;;0.30;;
19705;SDS011;10003;52.506;4.700;2022-09-19T13:54:59;0.30;;;0.30;;
19705;SDS011;10003;52.506;4.700;2022-09-19T13:57:33;0.30;;;0.30;;
19705;SDS011;10003;52.506;4.700;2022-09-19T14:00:09;0.30;;;0.30;;
19705;SDS011;10003;52.506;4.700;2022-09-19T14:02:58;7.20;;;2.20;;
19705;SDS011;10003;52.506;4.700;2022-09-19T14:05:27;2.00;;;1.50;;
19705;SDS011;10003;52.506;4.700;2022-09-19T14:08:01;10.63;;;2.30;;
19705;SDS011;10003;52.506;4.700;2022-09-19T14:10:52;1.67;;;1.03;;
19705;SDS011;10003;52.506;4.700;2022-09-19T14:13:35;2.03;;;1.10;;
19705;SDS011;10003;52.506;4.700;2022-09-19T14:18:51;3.50;;;0.67;;
19705;SDS011;10003;52.506;4.700;2022-09-19T14:24:35;8.40;;;1.27;;
19705;SDS011;10003;52.506;4.700;2022-09-19T14:27:13;1.77;;;1.33;;
19705;SDS011;10003;52.506;4.700;2022-09-19T14:29:46;1.20;;;1.13;;
19705;SDS011;10003;52.506;4.700;2022-09-19T14:32:26;4.07;;;1.13;;
19705;SDS011;10003;52.506;4.700;2022-09-19T14:35:15;4.63;;;0.93;;
19705;SDS011;10003;52.506;4.700;2022-09-19T14:37:53;1.90;;;0.90;;
19705;SDS011;10003;52.506;4.700;2022-09-19T14:40:37;1.80;;;1.23;;
19705;SDS011;10003;52.506;4.700;2022-09-19T14:49:02;2.60;;;1.60;;
19705;SDS011;10003;52.506;4.700;2022-09-19T14:51:36;4.67;;;1.43;;
19705;SDS011;10003;52.506;4.700;2022-09-19T14:54:24;3.30;;;1.13;;
19705;SDS011;10003;52.506;4.700;2022-09-19T14:57:29;0.87;;;0.87;;
19705;SDS011;10003;52.506;4.700;2022-09-19T15:00:24;7.63;;;2.00;;
19705;SDS011;10003;52.506;4.700;2022-09-19T15:03:22;0.93;;;0.80;;
19705;SDS011;10003;52.506;4.700;2022-09-19T15:06:00;0.87;;;0.70;;
19705;SDS011;10003;52.506;4.700;2022-09-19T15:09:16;2.73;;;1.23;;
19705;SDS011;10003;52.506;4.700;2022-09-19T15:12:11;4.00;;;1.47;;
19705;SDS011;10003;52.506;4.700;2022-09-19T15:15:04;1.03;;;1.03;;
19705;SDS011;10003;52.506;4.700;2022-09-19T15:17:58;7.50;;;1.50;;
19705;SDS011;10003;52.506;4.700;2022-09-19T15:20:58;1.27;;;0.90;;
19705;SDS011;10003;52.506;4.700;2022-09-19T15:23:31;3.00;;;1.40;;
19705;SDS011;10003;52.506;4.700;2022-09-19T15:26:12;5.33;;;1.13;;
19705;SDS011;10003;52.506;4.700;2022-09-19T15:28:57;1.70;;;1.17;;
19705;SDS011;10003;52.506;4.700;2022-09-19T15:31:41;2.07;;;1.33;;
19705;SDS011;10003;52.506;4.700;2022-09-19T15:34:16;7.87;;;3.27;;
19705;SDS011;10003;52.506;4.700;2022-09-19T15:36:46;9.80;;;1.40;;
19705;SDS011;10003;52.506;4.700;2022-09-19T15:39:15;2.77;;;0.70;;
19705;SDS011;10003;52.506;4.700;2022-09-19T15:41:43;4.40;;;1.40;;
19705;SDS011;10003;52.506;4.700;2022-09-19T15:44:24;3.00;;;0.90;;
19705;SDS011;10003;52.506;4.700;2022-09-19T15:46:59;2.83;;;0.70;;
19705;SDS011;10003;52.506;4.700;2022-09-19T15:49:29;4.43;;;1.83;;
19705;SDS011;10003;52.506;4.700;2022-09-19T15:52:05;1.40;;;0.90;;
19705;SDS011;10003;52.506;4.700;2022-09-19T15:54:34;0.70;;;0.70;;
19705;SDS011;10003;52.506;4.700;2022-09-19T15:57:11;1.60;;;1.27;;
19705;SDS011;10003;52.506;4.700;2022-09-19T15:59:42;5.90;;;1.37;;
19705;SDS011;10003;52.506;4.700;2022-09-19T16:02:16;0.70;;;0.70;;
19705;SDS011;10003;52.506;4.700;2022-09-19T16:04:59;0.70;;;0.70;;
19705;SDS011;10003;52.506;4.700;2022-09-19T16:07:36;0.60;;;0.60;;
19705;SDS011;10003;52.506;4.700;2022-09-19T16:10:23;1.90;;;0.83;;
19705;SDS011;10003;52.506;4.700;2022-09-19T16:13:32;1.53;;;1.43;;
19705;SDS011;10003;52.506;4.700;2022-09-19T16:16:01;2.07;;;1.60;;
19705;SDS011;10003;52.506;4.700;2022-09-19T16:18:44;2.87;;;1.33;;
19705;SDS011;10003;52.506;4.700;2022-09-19T16:21:14;1.60;;;1.10;;
19705;SDS011;10003;52.506;4.700;2022-09-19T16:23:44;2.73;;;0.97;;
19705;SDS011;10003;52.506;4.700;2022-09-19T16:26:14;0.50;;;0.50;;
19705;SDS011;10003;52.506;4.700;2022-09-19T16:28:47;1.50;;;1.13;;
19705;SDS011;10003;52.506;4.700;2022-09-19T16:31:18;1.03;;;1.03;;
19705;SDS011;10003;52.506;4.700;2022-09-19T16:33:51;2.20;;;0.70;;
19705;SDS011;10003;52.506;4.700;2022-09-19T16:36:20;1.00;;;1.00;;
19705;SDS011;10003;52.506;4.700;2022-09-19T16:41:35;2.10;;;1.00;;
19705;SDS011;10003;52.506;4.700;2022-09-19T16:44:17;2.37;;;1.47;;
19705;SDS011;10003;52.506;4.700;2022-09-19T16:46:49;0.63;;;0.63;;
19705;SDS011;10003;52.506;4.700;2022-09-19T16:49:21;0.67;;;0.60;;
19705;SDS011;10003;52.506;4.700;2022-09-19T16:51:50;12.47;;;1.57;;
19705;SDS011;10003;52.506;4.700;2022-09-19T16:54:19;1.70;;;1.03;;
19705;SDS011;10003;52.506;4.700;2022-09-19T16:56:47;2.63;;;1.00;;
19705;SDS011;10003;52.506;4.700;2022-09-19T16:59:17;1.57;;;1.30;;
19705;SDS011;10003;52.506;4.700;2022-09-19T17:01:46;1.60;;;0.83;;
19705;SDS011;10003;52.506;4.700;2022-09-19T17:04:16;1.37;;;1.10;;
19705;SDS011;10003;52.506;4.700;2022-09-19T17:06:47;1.70;;;1.57;;
19705;SDS011;10003;52.506;4.700;2022-09-19T17:09:16;1.13;;;1.13;;
19705;SDS011;10003;52.506;4.700;2022-09-19T17:11:45;2.53;;;1.20;;
19705;SDS011;10003;52.506;4.700;2022-09-19T17:14:13;3.00;;;0.70;;
19705;SDS011;10003;52.506;4.700;2022-09-19T17:16:43;1.50;;;1.30;;
19705;SDS011;10003;52.506;4.700;2022-09-19T17:19:12;1.33;;;0.97;;
19705;SDS011;10003;52.506;4.700;2022-09-19T17:21:41;3.60;;;1.10;;